Time;durP1;ratioP1;P1;durP2;ratioP2;P2;SDS_P1;SDS_P2;PMS_P1;PMS_P2;Temp;Humidity;BMP_temperature;BMP_pressure;BME280_temperature;BME280_humidity;BME280_pressure;Samples;Min_cycle;Max_cycle;Signal;HPM_P1;HPM_P2
2021/09/10 00:02:47;;;;;;;;;;;24.00;46.20;;;;;;8364573;28;19916;-46
2021/09/10 00:06:49;;;;;;;;;;;24.00;46.20;;;;;;8364575;28;19940;-48
2021/09/10 00:10:50;;;;;;;;;;;24.00;46.20;;;;;;8363791;28;19944;-49
2021/09/10 00:14:50;;;;;;;;;;;24.00;46.20;;;;;;8364081;28;19921;-46
2021/09/10 00:18:51;;;;;;;;;;;24.00;46.20;;;;;;8364722;28;19916;-47
2021/09/10 00:22:51;;;;;;;;;;;24.00;46.30;;;;;;8363720;28;19916;-46
2021/09/10 00:26:52;;;;;;;;;;;24.00;46.30;;;;;;8363838;28;19928;-47
2021/09/10 00:30:52;;;;;;;;;;;24.00;46.30;;;;;;8363689;28;19923;-46
2021/09/10 00:34:53;;;;;;;;;;;24.00;46.30;;;;;;8364236;28;20420;-47
2021/09/10 00:38:53;;;;;;;;;;;23.90;46.30;;;;;;8363630;28;20293;-47
2021/09/10 00:42:54;;;;;;;;;;;23.90;46.80;;;;;;8363056;28;19939;-46
2021/09/10 00:46:54;;;;;;;;;;;24.00;46.30;;;;;;8363398;28;19917;-46
2021/09/10 00:50:55;;;;;;;;;;;23.90;46.30;;;;;;8364162;28;19916;-47
2021/09/10 00:54:55;;;;;;;;;;;23.90;46.30;;;;;;8362950;28;20313;-46
2021/09/10 00:58:57;;;;;;;;;;;23.90;46.30;;;;;;8363247;28;19941;-46
2021/09/10 01:02:57;;;;;;;;;;;23.90;46.30;;;;;;8363243;28;19917;-46
2021/09/10 01:06:59;;;;;;;;;;;23.90;46.30;;;;;;8362562;28;20265;-48
2021/09/10 01:11:00;;;;;;;;;;;23.90;46.30;;;;;;8363717;28;19920;-47
2021/09/10 01:15:01;;;;;;;;;;;23.80;46.30;;;;;;8362783;28;19947;-47
2021/09/10 01:19:01;;;;;;;;;;;23.90;46.30;;;;;;8362687;28;19920;-47
2021/09/10 01:23:02;;;;;;;;;;;23.90;46.30;;;;;;8362843;28;19916;-48
2021/09/10 01:27:03;;;;;;;;;;;23.90;46.40;;;;;;8366951;28;19924;-46
2021/09/10 01:31:04;;;;;;;;;;;23.80;46.30;;;;;;8367671;28;19923;-46
2021/09/10 01:35:04;;;;;;;;;;;23.90;46.30;;;;;;8369283;28;20389;-47
2021/09/10 01:39:05;;;;;;;;;;;23.90;46.40;;;;;;8369177;28;20352;-46
2021/09/10 01:43:06;;;;;;;;;;;23.80;46.40;;;;;;8369340;28;19929;-47
2021/09/10 01:47:06;;;;;;;;;;;23.90;46.40;;;;;;8369178;28;19923;-47
2021/09/10 01:51:06;;;;;;;;;;;23.80;46.40;;;;;;8369110;28;19917;-48
2021/09/10 01:55:08;;;;;;;;;;;23.80;46.40;;;;;;8368276;28;20011;-47
2021/09/10 01:59:08;;;;;;;;;;;23.80;46.40;;;;;;8368741;28;19921;-47
2021/09/10 02:03:09;;;;;;;;;;;23.80;46.40;;;;;;8369213;28;20388;-47
2021/09/10 02:07:10;;;;;;;;;;;23.80;46.40;;;;;;8367900;28;19912;-47
2021/09/10 02:11:10;;;;;;;;;;;23.80;46.40;;;;;;8368532;28;19921;-47
2021/09/10 02:15:11;;;;;;;;;;;23.70;46.40;;;;;;8367886;28;19928;-48
2021/09/10 02:19:12;;;;;;;;;;;23.80;46.40;;;;;;8368332;28;19924;-47
2021/09/10 02:23:12;;;;;;;;;;;23.80;46.50;;;;;;8367645;28;19960;-47
2021/09/10 02:27:12;;;;;;;;;;;23.80;46.40;;;;;;8367541;28;19990;-47
2021/09/10 02:31:13;;;;;;;;;;;23.70;46.40;;;;;;8367237;28;19920;-47
2021/09/10 02:35:13;;;;;;;;;;;23.70;46.40;;;;;;8367311;28;19921;-47
2021/09/10 02:39:14;;;;;;;;;;;23.70;46.40;;;;;;8367653;28;19917;-47
2021/09/10 02:43:14;;;;;;;;;;;23.70;46.40;;;;;;8365459;28;19924;-48
2021/09/10 02:47:15;;;;;;;;;;;23.70;46.40;;;;;;8366962;28;19927;-47
2021/09/10 02:51:15;;;;;;;;;;;23.70;46.40;;;;;;8367239;28;19917;-47
2021/09/10 02:55:16;;;;;;;;;;;23.70;46.40;;;;;;8366900;28;19931;-47
2021/09/10 02:59:16;;;;;;;;;;;23.70;46.50;;;;;;8366623;28;19920;-47
2021/09/10 03:03:16;;;;;;;;;;;23.70;46.50;;;;;;8366514;28;20361;-46
2021/09/10 03:07:17;;;;;;;;;;;23.70;46.50;;;;;;8366067;28;19917;-47
2021/09/10 03:11:18;;;;;;;;;;;23.70;46.50;;;;;;8367543;28;19928;-47
2021/09/10 03:15:18;;;;;;;;;;;23.70;46.50;;;;;;8366071;28;19971;-47
2021/09/10 03:19:19;;;;;;;;;;;23.70;46.50;;;;;;8365596;28;19917;-48
2021/09/10 03:23:19;;;;;;;;;;;23.70;46.50;;;;;;8365832;28;19956;-47
2021/09/10 03:27:20;;;;;;;;;;;23.70;46.50;;;;;;8365778;28;19917;-47
2021/09/10 03:31:20;;;;;;;;;;;23.60;46.50;;;;;;8366057;28;19917;-46
2021/09/10 03:35:21;;;;;;;;;;;23.60;46.50;;;;;;8365474;28;20015;-47
2021/09/10 03:39:21;;;;;;;;;;;23.60;46.50;;;;;;8365530;28;19920;-47
2021/09/10 03:43:21;;;;;;;;;;;23.60;46.50;;;;;;8364965;28;20353;-47
2021/09/10 03:47:22;;;;;;;;;;;23.60;46.50;;;;;;8365749;28;19931;-48
2021/09/10 03:51:22;;;;;;;;;;;23.60;46.60;;;;;;8368705;28;19936;-49
2021/09/10 03:55:23;;;;;;;;;;;23.60;46.50;;;;;;8379286;28;20008;-47
2021/09/10 03:59:23;;;;;;;;;;;23.60;46.60;;;;;;8364917;28;19913;-47
2021/09/10 04:03:24;;;;;;;;;;;23.60;46.50;;;;;;8365452;28;19917;-46
2021/09/10 04:07:24;;;;;;;;;;;23.60;46.60;;;;;;8364231;28;19917;-48
2021/09/10 04:11:25;;;;;;;;;;;23.60;46.60;;;;;;8364244;28;20401;-48
2021/09/10 04:15:26;;;;;;;;;;;23.60;46.60;;;;;;8364339;28;19925;-48
2021/09/10 04:19:27;;;;;;;;;;;23.60;46.60;;;;;;8363886;28;19925;-48
2021/09/10 04:23:27;;;;;;;;;;;23.60;46.60;;;;;;8364811;28;20289;-49
2021/09/10 04:27:28;;;;;;;;;;;23.60;46.60;;;;;;8364311;28;19970;-48
2021/09/10 04:31:28;;;;;;;;;;;23.50;46.60;;;;;;8363412;28;19917;-48
2021/09/10 04:35:28;;;;;;;;;;;23.50;46.60;;;;;;8363514;28;19928;-48
2021/09/10 04:39:29;;;;;;;;;;;23.50;46.60;;;;;;8364552;28;19917;-47
2021/09/10 04:43:29;;;;;;;;;;;23.50;46.60;;;;;;8362980;28;19921;-50
2021/09/10 04:47:30;;;;;;;;;;;23.50;46.60;;;;;;8363452;28;20018;-48
2021/09/10 04:51:30;;;;;;;;;;;23.50;46.70;;;;;;8363555;28;20001;-47
2021/09/10 04:55:31;;;;;;;;;;;23.50;46.70;;;;;;8363647;28;20413;-47
2021/09/10 04:59:31;;;;;;;;;;;23.50;46.70;;;;;;8363534;28;19917;-48
2021/09/10 05:03:32;;;;;;;;;;;23.50;46.70;;;;;;8363012;28;19917;-49
2021/09/10 05:07:32;;;;;;;;;;;23.50;46.70;;;;;;8362655;28;19917;-47
2021/09/10 05:11:33;;;;;;;;;;;23.50;46.70;;;;;;8362957;28;19925;-48
2021/09/10 05:15:33;;;;;;;;;;;23.40;46.70;;;;;;8363737;28;20281;-49
2021/09/10 05:19:34;;;;;;;;;;;23.50;46.70;;;;;;8362559;28;20396;-48
2021/09/10 05:23:35;;;;;;;;;;;23.40;46.70;;;;;;8363043;28;19917;-48
2021/09/10 05:27:36;;;;;;;;;;;23.40;46.70;;;;;;8362820;28;19956;-48
2021/09/10 05:31:36;;;;;;;;;;;23.50;46.80;;;;;;8363080;28;19917;-47
2021/09/10 05:35:37;;;;;;;;;;;23.40;46.70;;;;;;8363040;28;19933;-47
2021/09/10 05:39:37;;;;;;;;;;;23.40;46.80;;;;;;8362865;28;20392;-47
2021/09/10 05:43:37;;;;;;;;;;;23.40;46.80;;;;;;8362357;28;19916;-50
2021/09/10 05:47:38;;;;;;;;;;;23.40;46.80;;;;;;8362717;28;20092;-47
2021/09/10 05:51:38;;;;;;;;;;;23.40;46.70;;;;;;8362851;28;19952;-47
2021/09/10 05:55:39;;;;;;;;;;;23.40;46.70;;;;;;8361724;28;20469;-48
2021/09/10 05:59:40;;;;;;;;;;;23.40;46.80;;;;;;8362356;28;20381;-47
2021/09/10 06:03:40;;;;;;;;;;;23.40;46.80;;;;;;8362068;28;19921;-49
2021/09/10 06:07:40;;;;;;;;;;;23.40;46.80;;;;;;8362749;28;20336;-48
2021/09/10 06:11:41;;;;;;;;;;;23.40;46.80;;;;;;8363723;28;20009;-49
2021/09/10 06:15:41;;;;;;;;;;;23.40;46.80;;;;;;8366527;28;19921;-48
2021/09/10 06:19:42;;;;;;;;;;;23.40;46.80;;;;;;8367682;28;19917;-47
2021/09/10 06:23:42;;;;;;;;;;;23.40;46.80;;;;;;8368691;28;19956;-47
2021/09/10 06:27:43;;;;;;;;;;;23.40;46.80;;;;;;8366650;28;19927;-47
2021/09/10 06:31:44;;;;;;;;;;;23.40;46.80;;;;;;8367182;28;19928;-48
2021/09/10 06:35:44;;;;;;;;;;;23.40;46.80;;;;;;8367663;28;19921;-48
2021/09/10 06:39:45;;;;;;;;;;;23.40;46.80;;;;;;8367710;28;20413;-48
2021/09/10 06:43:46;;;;;;;;;;;23.40;46.80;;;;;;8367422;28;19924;-49
2021/09/10 06:47:46;;;;;;;;;;;23.40;46.80;;;;;;8366972;28;19970;-48
2021/09/10 06:51:47;;;;;;;;;;;23.40;46.80;;;;;;8367040;28;20339;-47
2021/09/10 06:55:47;;;;;;;;;;;23.40;46.80;;;;;;8366079;28;19951;-48
2021/09/10 06:59:47;;;;;;;;;;;23.40;46.80;;;;;;8367507;28;19920;-47
2021/09/10 07:03:48;;;;;;;;;;;23.40;46.80;;;;;;8366460;28;19917;-47
2021/09/10 07:07:48;;;;;;;;;;;23.40;46.80;;;;;;8365846;28;19921;-47
2021/09/10 07:11:49;;;;;;;;;;;23.40;46.80;;;;;;8366687;28;20381;-47
2021/09/10 07:15:49;;;;;;;;;;;23.40;46.80;;;;;;8367051;28;19921;-48
2021/09/10 07:19:50;;;;;;;;;;;23.40;46.80;;;;;;8364669;28;19927;-47
2021/09/10 07:23:50;;;;;;;;;;;23.40;46.80;;;;;;8365084;28;19923;-49
2021/09/10 07:27:51;;;;;;;;;;;23.40;46.90;;;;;;8365786;28;19917;-47
2021/09/10 07:31:52;;;;;;;;;;;23.40;46.80;;;;;;8365356;28;19913;-48
2021/09/10 07:35:52;;;;;;;;;;;23.40;46.90;;;;;;8366145;28;20012;-48
2021/09/10 07:39:53;;;;;;;;;;;23.40;46.80;;;;;;8364966;28;19916;-49
2021/09/10 07:43:54;;;;;;;;;;;23.40;46.90;;;;;;8365345;28;19970;-47
2021/09/10 07:47:54;;;;;;;;;;;23.40;46.80;;;;;;8365158;28;20401;-50
2021/09/10 07:51:55;;;;;;;;;;;23.40;46.80;;;;;;8365335;28;19913;-46
2021/09/10 07:55:55;;;;;;;;;;;23.40;46.80;;;;;;8364779;28;20435;-49
2021/09/10 07:59:56;;;;;;;;;;;23.40;46.90;;;;;;8364884;28;19983;-48
2021/09/10 08:03:56;;;;;;;;;;;23.40;46.90;;;;;;8364534;28;20380;-47
2021/09/10 08:07:57;;;;;;;;;;;23.40;46.90;;;;;;8365743;28;19966;-47
2021/09/10 08:11:57;;;;;;;;;;;23.40;46.90;;;;;;8364345;28;20510;-48
2021/09/10 08:15:57;;;;;;;;;;;23.40;46.90;;;;;;8363844;28;19927;-48
2021/09/10 08:19:58;;;;;;;;;;;23.40;46.90;;;;;;8364278;28;19924;-48
2021/09/10 08:23:58;;;;;;;;;;;23.40;46.90;;;;;;8364364;28;19921;-48
2021/09/10 08:27:59;;;;;;;;;;;23.40;46.90;;;;;;8364237;28;19917;-50
2021/09/10 08:31:59;;;;;;;;;;;23.30;46.90;;;;;;8364272;28;19917;-47
2021/09/10 08:36:01;;;;;;;;;;;23.40;46.90;;;;;;8363250;28;19935;-49
2021/09/10 08:40:02;;;;;;;;;;;23.40;46.90;;;;;;8363238;28;19916;-47
2021/09/10 08:44:04;;;;;;;;;;;23.40;46.90;;;;;;8364491;28;19919;-47
2021/09/10 08:48:05;;;;;;;;;;;23.40;46.90;;;;;;8363488;28;19962;-47
2021/09/10 08:52:06;;;;;;;;;;;23.40;46.90;;;;;;8362972;28;19916;-48
2021/09/10 08:56:06;;;;;;;;;;;23.40;47.00;;;;;;8363213;28;20282;-47
2021/09/10 09:00:08;;;;;;;;;;;23.40;47.00;;;;;;8363468;28;20336;-49
2021/09/10 09:04:08;;;;;;;;;;;23.40;47.00;;;;;;8363383;28;19923;-47
2021/09/10 09:08:10;;;;;;;;;;;23.40;47.00;;;;;;8362952;28;19920;-51
2021/09/10 09:12:29;;;;;;;;;;;23.40;47.00;;;;;;8363003;28;19963;-48
2021/09/10 09:16:30;;;;;;;;;;;23.40;47.00;;;;;;8362681;28;19925;-48
2021/09/10 09:20:31;;;;;;;;;;;23.40;47.00;;;;;;8362420;28;19913;-48
2021/09/10 09:24:31;;;;;;;;;;;23.40;47.00;;;;;;8363111;28;20372;-48
2021/09/10 09:28:32;;;;;;;;;;;23.40;47.00;;;;;;8362555;28;19917;-48
2021/09/10 09:32:46;;;;;;;;;;;23.40;47.00;;;;;;8362703;28;19917;-47
2021/09/10 09:36:50;;;;;;;;;;;23.40;47.00;;;;;;8362586;28;19964;-48
2021/09/10 09:40:51;;;;;;;;;;;23.40;47.00;;;;;;8363002;28;19936;-48
2021/09/10 09:45:10;;;;;;;;;;;23.40;47.00;;;;;;8362665;28;20429;-47
2021/09/10 09:49:12;;;;;;;;;;;23.40;47.00;;;;;;8367312;28;19917;-47
2021/09/10 09:53:13;;;;;;;;;;;23.40;47.10;;;;;;8368650;28;19917;-47
2021/09/10 09:57:13;;;;;;;;;;;23.40;47.00;;;;;;8369553;28;19923;-47
2021/09/10 10:01:16;;;;;;;;;;;23.40;47.00;;;;;;8367996;28;19965;-49
2021/09/10 10:05:17;;;;;;;;;;;23.40;47.00;;;;;;8368735;28;19923;-47
2021/09/10 10:09:20;;;;;;;;;;;23.40;47.00;;;;;;8368196;28;19928;-48
2021/09/10 10:13:25;;;;;;;;;;;23.40;47.00;;;;;;8367265;28;19923;-49
2021/09/10 10:17:31;;;;;;;;;;;23.40;47.00;;;;;;8368885;28;19958;-48
2021/09/10 10:21:53;;;;;;;;;;;23.40;47.10;;;;;;8367983;28;19937;-47
2021/09/10 10:26:04;;;;;;;;;;;23.40;47.10;;;;;;8367448;28;19917;-48
2021/09/10 10:30:14;;;;;;;;;;;23.40;47.10;;;;;;8372995;28;19963;-47
2021/09/10 10:34:14;;;;;;;;;;;23.40;47.10;;;;;;8367294;28;20320;-50
2021/09/10 10:38:15;;;;;;;;;;;23.50;47.10;;;;;;8368422;28;19916;-50
2021/09/10 10:42:15;;;;;;;;;;;23.50;47.10;;;;;;8367465;28;19917;-50
2021/09/10 10:46:27;;;;;;;;;;;23.50;47.10;;;;;;8366937;28;19921;-51
2021/09/10 10:50:32;;;;;;;;;;;23.50;47.10;;;;;;8367490;28;20316;-49
2021/09/10 10:54:32;;;;;;;;;;;23.50;47.10;;;;;;8367107;28;19921;-50
2021/09/10 10:58:32;;;;;;;;;;;23.50;47.10;;;;;;8366743;28;19967;-48
2021/09/10 11:02:36;;;;;;;;;;;23.50;47.00;;;;;;8366756;28;20366;-48
2021/09/10 11:06:37;;;;;;;;;;;23.50;47.00;;;;;;8366702;28;19956;-49
2021/09/10 11:10:38;;;;;;;;;;;23.60;47.10;;;;;;8366024;28;19921;-47
2021/09/10 11:14:42;;;;;;;;;;;23.60;47.10;;;;;;8367352;28;20042;-48
2021/09/10 11:18:45;;;;;;;;;;;23.50;47.00;;;;;;8366306;28;19950;-50
2021/09/10 11:22:48;;;;;;;;;;;23.60;47.10;;;;;;8365736;28;19917;-49
2021/09/10 11:26:48;;;;;;;;;;;23.60;47.10;;;;;;8366110;28;20274;-48
2021/09/10 11:30:50;;;;;;;;;;;23.60;47.10;;;;;;8366822;28;19912;-48
2021/09/10 11:34:51;;;;;;;;;;;23.60;47.10;;;;;;8365566;28;20410;-50
2021/09/10 11:39:02;;;;;;;;;;;23.60;47.00;;;;;;8365925;28;19916;-47
2021/09/10 11:43:03;;;;;;;;;;;23.60;47.10;;;;;;8365095;28;20261;-47
2021/09/10 11:47:03;;;;;;;;;;;23.60;47.10;;;;;;8365764;28;19924;-50
2021/09/10 11:51:08;;;;;;;;;;;23.60;47.10;;;;;;8365929;28;19913;-49
2021/09/10 11:55:08;;;;;;;;;;;23.60;47.00;;;;;;8364776;28;20296;-46
2021/09/10 11:59:25;;;;;;;;;;;23.60;47.00;;;;;;8365525;28;19924;-50
2021/09/10 12:03:26;;;;;;;;;;;23.60;47.00;;;;;;8365014;28;19923;-48
2021/09/10 12:07:27;;;;;;;;;;;23.70;47.00;;;;;;8364550;28;19944;-46
2021/09/10 12:11:28;;;;;;;;;;;23.60;47.00;;;;;;8365091;28;20301;-51
2021/09/10 12:15:28;;;;;;;;;;;23.70;47.00;;;;;;8364866;28;19932;-49
2021/09/10 12:19:28;;;;;;;;;;;23.70;47.00;;;;;;8364193;28;19917;-49
2021/09/10 12:23:29;;;;;;;;;;;23.70;46.90;;;;;;8364139;28;19920;-47
2021/09/10 12:27:29;;;;;;;;;;;23.70;46.90;;;;;;8364757;28;19920;-48
2021/09/10 12:31:30;;;;;;;;;;;23.80;46.90;;;;;;8363668;28;19956;-47
2021/09/10 12:35:31;;;;;;;;;;;23.80;46.90;;;;;;8364083;28;19925;-48
2021/09/10 12:39:32;;;;;;;;;;;23.80;46.90;;;;;;8363891;28;19913;-49
2021/09/10 12:43:33;;;;;;;;;;;23.80;46.80;;;;;;8364190;28;20003;-51
2021/09/10 12:47:33;;;;;;;;;;;23.80;46.80;;;;;;8364026;28;20324;-48
2021/09/10 12:51:34;;;;;;;;;;;23.80;46.90;;;;;;8363628;28;20020;-50
2021/09/10 12:55:35;;;;;;;;;;;23.80;46.80;;;;;;8363093;28;19925;-49
2021/09/10 12:59:35;;;;;;;;;;;23.80;46.80;;;;;;8363870;28;19967;-48
2021/09/10 13:03:36;;;;;;;;;;;23.90;46.80;;;;;;8364296;28;20477;-51
2021/09/10 13:07:37;;;;;;;;;;;23.90;46.80;;;;;;8362863;28;19921;-47
2021/09/10 13:11:37;;;;;;;;;;;23.90;46.80;;;;;;8363142;28;19920;-47
2021/09/10 13:15:38;;;;;;;;;;;23.90;46.80;;;;;;8363288;28;20435;-48
2021/09/10 13:19:38;;;;;;;;;;;23.90;46.80;;;;;;8363308;28;20402;-50
2021/09/10 13:23:39;;;;;;;;;;;23.90;46.80;;;;;;8367778;28;20000;-48
2021/09/10 13:27:39;;;;;;;;;;;23.90;46.70;;;;;;8369666;28;20383;-48
2021/09/10 13:31:42;;;;;;;;;;;23.90;46.70;;;;;;8369268;28;19944;-50
2021/09/10 13:35:43;;;;;;;;;;;23.90;46.80;;;;;;8370090;28;20387;-47
2021/09/10 13:39:45;;;;;;;;;;;23.90;46.80;;;;;;8369827;28;19921;-48
2021/09/10 13:43:46;;;;;;;;;;;23.90;46.80;;;;;;8368850;28;19963;-47
2021/09/10 13:47:46;;;;;;;;;;;23.90;46.80;;;;;;8369150;28;20330;-48
2021/09/10 13:51:46;;;;;;;;;;;23.90;46.80;;;;;;8369120;28;19943;-49
2021/09/10 13:55:47;;;;;;;;;;;23.90;46.80;;;;;;8369037;28;19921;-49
2021/09/10 13:59:48;;;;;;;;;;;23.90;46.80;;;;;;8368953;28;20011;-51
2021/09/10 14:03:48;;;;;;;;;;;23.90;46.90;;;;;;8368752;28;19913;-48
2021/09/10 14:07:48;;;;;;;;;;;23.90;46.90;;;;;;8368081;28;19917;-49
2021/09/10 14:11:49;;;;;;;;;;;23.90;46.90;;;;;;8369338;28;19921;-50
2021/09/10 14:15:50;;;;;;;;;;;23.90;46.90;;;;;;8368387;28;19982;-47
2021/09/10 14:19:50;;;;;;;;;;;23.90;47.00;;;;;;8367552;28;19921;-47
2021/09/10 14:23:51;;;;;;;;;;;23.90;47.00;;;;;;8368024;28;19912;-52
2021/09/10 14:27:51;;;;;;;;;;;23.80;47.00;;;;;;8367889;28;19924;-49
2021/09/10 14:31:51;;;;;;;;;;;23.80;47.10;;;;;;8367814;28;19971;-49
2021/09/10 14:35:52;;;;;;;;;;;23.90;47.10;;;;;;8367328;28;20035;-48
2021/09/10 14:39:52;;;;;;;;;;;23.90;47.20;;;;;;8367428;28;19936;-49
2021/09/10 14:43:53;;;;;;;;;;;23.80;47.20;;;;;;8367281;28;20289;-51
2021/09/10 14:47:53;;;;;;;;;;;23.80;47.20;;;;;;8368162;28;19913;-49
2021/09/10 14:51:54;;;;;;;;;;;23.80;47.30;;;;;;8366841;28;19921;-49
2021/09/10 14:55:54;;;;;;;;;;;23.80;47.40;;;;;;8366887;28;19925;-49
2021/09/10 15:00:08;;;;;;;;;;;23.80;47.40;;;;;;8366927;28;19919;-49
2021/09/10 15:04:08;;;;;;;;;;;23.80;47.40;;;;;;8366788;28;19917;-48
2021/09/10 15:08:09;;;;;;;;;;;23.80;47.50;;;;;;8400017;28;19916;-49
2021/09/10 15:12:10;;;;;;;;;;;23.80;47.50;;;;;;8399577;28;19923;-50
2021/09/10 15:16:11;;;;;;;;;;;23.80;47.50;;;;;;8399048;28;19978;-51
2021/09/10 15:20:12;;;;;;;;;;;23.80;47.60;;;;;;8399409;28;19924;-51
2021/09/10 15:24:12;;;;;;;;;;;23.80;47.50;;;;;;8400234;28;20377;-52
2021/09/10 15:28:13;;;;;;;;;;;23.80;47.60;;;;;;8398443;28;19924;-52
2021/09/10 15:32:13;;;;;;;;;;;23.70;47.60;;;;;;8398974;28;19924;-52
2021/09/10 15:36:14;;;;;;;;;;;23.80;47.60;;;;;;8398747;28;20304;-49
2021/09/10 15:40:14;;;;;;;;;;;23.80;47.70;;;;;;8398936;28;19913;-52
2021/09/10 15:44:18;;;;;;;;;;;23.70;47.70;;;;;;8397612;28;20387;-49
2021/09/10 15:48:20;;;;;;;;;;;23.70;47.70;;;;;;8398399;28;19923;-51
2021/09/10 15:52:20;;;;;;;;;;;23.70;47.70;;;;;;8397747;28;19924;-51
2021/09/10 15:56:21;;;;;;;;;;;23.70;47.80;;;;;;8398041;28;19921;-50
2021/09/10 16:00:21;;;;;;;;;;;23.70;47.70;;;;;;8398741;28;19918;-51
2021/09/10 16:04:22;;;;;;;;;;;23.80;47.80;;;;;;8397649;28;19916;-49
2021/09/10 16:08:22;;;;;;;;;;;23.80;47.90;;;;;;8397958;28;19916;-52
2021/09/10 16:12:27;;;;;;;;;;;23.70;47.70;;;;;;8397769;28;19948;-48
2021/09/10 16:16:27;;;;;;;;;;;23.70;47.80;;;;;;8397874;28;19927;-50
2021/09/10 16:20:28;;;;;;;;;;;23.80;47.90;;;;;;8397726;28;20456;-47
2021/09/10 16:24:29;;;;;;;;;;;23.80;47.90;;;;;;8397343;28;19924;-50
2021/09/10 16:28:29;;;;;;;;;;;23.70;47.80;;;;;;8396933;28;19939;-50
2021/09/10 16:32:30;;;;;;;;;;;23.80;47.90;;;;;;8398161;28;19920;-50
2021/09/10 16:36:30;;;;;;;;;;;23.80;47.90;;;;;;8396893;28;19931;-50
2021/09/10 16:40:31;;;;;;;;;;;23.70;47.90;;;;;;8396531;28;19916;-50
2021/09/10 16:44:31;;;;;;;;;;;23.70;47.90;;;;;;8397036;28;19916;-51
2021/09/10 16:48:32;;;;;;;;;;;23.80;48.00;;;;;;8396730;28;19920;-50
2021/09/10 16:52:32;;;;;;;;;;;23.70;47.90;;;;;;8397074;28;19939;-46
2021/09/10 16:56:33;;;;;;;;;;;23.80;48.00;;;;;;8396302;28;19924;-49
2021/09/10 17:00:33;;;;;;;;;;;23.70;48.00;;;;;;8396856;28;19995;-48
2021/09/10 17:04:34;;;;;;;;;;;23.70;48.00;;;;;;8396061;28;19922;-49
2021/09/10 17:08:34;;;;;;;;;;;23.70;48.00;;;;;;8397119;28;19985;-48
2021/09/10 17:12:35;;;;;;;;;;;23.70;47.90;;;;;;8396405;28;20373;-50
2021/09/10 17:16:35;;;;;;;;;;;23.70;48.00;;;;;;8395904;28;20365;-46
2021/09/10 17:20:35;;;;;;;;;;;23.70;48.10;;;;;;8396377;28;19927;-48
2021/09/10 17:24:36;;;;;;;;;;;23.70;48.00;;;;;;8396508;28;19924;-49
2021/09/10 17:28:36;;;;;;;;;;;23.70;48.00;;;;;;8396087;28;19927;-50
2021/09/10 17:32:37;;;;;;;;;;;23.70;48.00;;;;;;8396202;28;20049;-49
2021/09/10 17:36:37;;;;;;;;;;;23.70;48.10;;;;;;8395877;28;19948;-47
2021/09/10 17:40:38;;;;;;;;;;;23.70;48.10;;;;;;8395573;28;19946;-50
2021/09/10 17:44:38;;;;;;;;;;;23.70;48.10;;;;;;8396608;28;19917;-48
2021/09/10 17:48:39;;;;;;;;;;;23.70;48.00;;;;;;8395845;28;19920;-47
2021/09/10 17:52:39;;;;;;;;;;;23.70;48.10;;;;;;8395460;28;19940;-50
2021/09/10 17:56:40;;;;;;;;;;;23.70;48.10;;;;;;8395333;28;19924;-50
2021/09/10 18:00:40;;;;;;;;;;;23.70;48.10;;;;;;8396343;28;19916;-47
2021/09/10 18:04:40;;;;;;;;;;;23.70;48.10;;;;;;8395173;28;20371;-49
2021/09/10 18:08:41;;;;;;;;;;;23.70;48.10;;;;;;8398150;28;19984;-50
2021/09/10 18:12:42;;;;;;;;;;;23.70;48.10;;;;;;8401373;28;20423;-49
2021/09/10 18:16:42;;;;;;;;;;;23.70;48.20;;;;;;8401165;28;20011;-51
2021/09/10 18:20:43;;;;;;;;;;;23.70;48.10;;;;;;8402236;28;19919;-48
2021/09/10 18:24:43;;;;;;;;;;;23.70;48.10;;;;;;8401205;28;19923;-50
2021/09/10 18:28:44;;;;;;;;;;;23.70;48.10;;;;;;8400547;28;20031;-47
2021/09/10 18:32:44;;;;;;;;;;;23.70;48.10;;;;;;8400934;28;20008;-47
2021/09/10 18:36:45;;;;;;;;;;;23.70;48.20;;;;;;8401510;28;20296;-48
2021/09/10 18:40:46;;;;;;;;;;;23.70;48.20;;;;;;8400098;28;20007;-50
2021/09/10 18:44:46;;;;;;;;;;;23.70;48.20;;;;;;8400826;28;20399;-48
2021/09/10 18:48:47;;;;;;;;;;;23.70;48.20;;;;;;8400266;28;19962;-50
2021/09/10 18:52:47;;;;;;;;;;;23.70;48.20;;;;;;8400571;28;19965;-51
2021/09/10 18:56:48;;;;;;;;;;;23.70;48.20;;;;;;8400171;28;19932;-49
2021/09/10 19:00:48;;;;;;;;;;;23.70;48.20;;;;;;8400260;28;19917;-49
2021/09/10 19:04:49;;;;;;;;;;;23.70;48.20;;;;;;8399523;28;20380;-48
2021/09/10 19:08:49;;;;;;;;;;;23.70;48.20;;;;;;8399856;28;19924;-49
2021/09/10 19:12:50;;;;;;;;;;;23.70;48.20;;;;;;8400386;28;20304;-48
2021/09/10 19:16:50;;;;;;;;;;;23.70;48.20;;;;;;8399083;28;20385;-48
2021/09/10 19:20:51;;;;;;;;;;;23.60;48.10;;;;;;8399575;28;20304;-51
2021/09/10 19:24:51;;;;;;;;;;;23.70;48.20;;;;;;8399463;28;19920;-49
2021/09/10 19:28:52;;;;;;;;;;;23.60;48.20;;;;;;8399758;28;20489;-48
2021/09/10 19:32:52;;;;;;;;;;;23.60;48.20;;;;;;8399181;28;19948;-51
2021/09/10 19:36:52;;;;;;;;;;;23.60;48.20;;;;;;8398837;28;19920;-51
2021/09/10 19:40:54;;;;;;;;;;;23.60;48.20;;;;;;8398342;28;19916;-50
2021/09/10 19:44:54;;;;;;;;;;;23.60;48.20;;;;;;8399523;28;20277;-48
2021/09/10 19:48:55;;;;;;;;;;;23.60;48.20;;;;;;8398273;28;19917;-51
2021/09/10 19:52:56;;;;;;;;;;;23.60;48.30;;;;;;8398542;28;19962;-49
2021/09/10 19:56:57;;;;;;;;;;;23.60;48.30;;;;;;8398334;28;20058;-48
2021/09/10 20:00:57;;;;;;;;;;;23.60;48.30;;;;;;8397666;28;19920;-50
2021/09/10 20:04:58;;;;;;;;;;;23.60;48.30;;;;;;8398578;28;19912;-49
2021/09/10 20:09:02;;;;;;;;;;;23.60;48.30;;;;;;8398015;28;20323;-49
2021/09/10 20:13:03;;;;;;;;;;;23.60;48.30;;;;;;8397305;28;19916;-48
2021/09/10 20:17:03;;;;;;;;;;;23.60;48.30;;;;;;8397633;28;19925;-51
2021/09/10 20:21:04;;;;;;;;;;;23.60;48.30;;;;;;8398278;28;19916;-51
2021/09/10 20:25:06;;;;;;;;;;;23.60;48.40;;;;;;8396283;28;21282;-51
2021/09/10 20:29:07;;;;;;;;;;;23.60;48.40;;;;;;8397639;28;19940;-51
2021/09/10 20:33:07;;;;;;;;;;;23.60;48.30;;;;;;8396840;28;19948;-49
2021/09/10 20:37:08;;;;;;;;;;;23.60;48.30;;;;;;8396685;28;19932;-50
2021/09/10 20:41:08;;;;;;;;;;;23.60;48.30;;;;;;8397757;28;19978;-51
2021/09/10 20:45:09;;;;;;;;;;;23.60;48.40;;;;;;8396866;28;19996;-51
2021/09/10 20:49:09;;;;;;;;;;;23.60;48.30;;;;;;8396580;28;20436;-50
2021/09/10 20:53:10;;;;;;;;;;;23.60;48.30;;;;;;8396899;28;20330;-52
2021/09/10 20:57:11;;;;;;;;;;;23.60;48.30;;;;;;8397320;28;19931;-49
2021/09/10 21:01:11;;;;;;;;;;;23.60;48.30;;;;;;8396053;28;19916;-51
2021/09/10 21:05:12;;;;;;;;;;;23.60;48.30;;;;;;8396773;28;19925;-50
2021/09/10 21:09:12;;;;;;;;;;;23.60;48.30;;;;;;8396420;28;20398;-51
2021/09/10 21:13:13;;;;;;;;;;;23.50;48.30;;;;;;8396771;28;19921;-48
2021/09/10 21:17:13;;;;;;;;;;;23.50;48.30;;;;;;8396219;28;19928;-49
2021/09/10 21:21:15;;;;;;;;;;;23.60;48.30;;;;;;8396559;28;20400;-48
2021/09/10 21:25:15;;;;;;;;;;;23.50;48.30;;;;;;8395847;28;20258;-48
2021/09/10 21:29:16;;;;;;;;;;;23.50;48.30;;;;;;8396230;28;19999;-51
2021/09/10 21:33:16;;;;;;;;;;;23.50;48.30;;;;;;8396753;28;19962;-49
2021/09/10 21:37:17;;;;;;;;;;;23.50;48.30;;;;;;8395494;28;20442;-48
2021/09/10 21:41:17;;;;;;;;;;;23.50;48.20;;;;;;8396285;28;20011;-48
2021/09/10 21:45:18;;;;;;;;;;;23.50;48.30;;;;;;8401407;28;19917;-48
2021/09/10 21:49:18;;;;;;;;;;;23.50;48.30;;;;;;8402827;28;19912;-48
2021/09/10 21:53:19;;;;;;;;;;;23.50;48.20;;;;;;8402264;28;19962;-48
2021/09/10 21:57:19;;;;;;;;;;;23.50;48.30;;;;;;8402006;28;19925;-47
2021/09/10 22:01:20;;;;;;;;;;;23.50;48.30;;;;;;8400656;28;19936;-47
2021/09/10 22:05:20;;;;;;;;;;;23.50;48.30;;;;;;8402801;28;20045;-48
2021/09/10 22:09:21;;;;;;;;;;;23.50;48.30;;;;;;8369066;28;19921;-47
2021/09/10 22:13:22;;;;;;;;;;;23.50;48.30;;;;;;8366813;28;19924;-47
2021/09/10 22:17:23;;;;;;;;;;;23.50;48.30;;;;;;8368406;28;19971;-47
2021/09/10 22:21:24;;;;;;;;;;;23.40;48.20;;;;;;8368369;28;19921;-47
2021/09/10 22:25:24;;;;;;;;;;;23.40;48.30;;;;;;8368304;28;19913;-48
2021/09/10 22:29:25;;;;;;;;;;;23.40;48.20;;;;;;8368201;28;19924;-46
2021/09/10 22:33:25;;;;;;;;;;;23.40;48.20;;;;;;8368012;28;19960;-48
2021/09/10 22:37:26;;;;;;;;;;;23.40;48.30;;;;;;8367158;28;19925;-49
2021/09/10 22:41:26;;;;;;;;;;;23.40;48.20;;;;;;8368318;28;19912;-48
2021/09/10 22:45:27;;;;;;;;;;;23.40;48.20;;;;;;8367590;28;19927;-50
2021/09/10 22:49:27;;;;;;;;;;;23.40;48.70;;;;;;8367076;28;20062;-50
2021/09/10 22:53:27;;;;;;;;;;;23.40;48.20;;;;;;8367050;28;19917;-51
2021/09/10 22:57:28;;;;;;;;;;;23.40;48.20;;;;;;8367212;28;19927;-48
2021/09/10 23:01:29;;;;;;;;;;;23.40;48.20;;;;;;8367038;28;19975;-49
2021/09/10 23:05:29;;;;;;;;;;;23.40;48.20;;;;;;8366846;28;19917;-47
2021/09/10 23:09:30;;;;;;;;;;;23.40;48.20;;;;;;8367299;28;19928;-48
2021/09/10 23:13:30;;;;;;;;;;;23.40;48.30;;;;;;8366131;28;19928;-49
2021/09/10 23:17:31;;;;;;;;;;;23.40;48.20;;;;;;8367090;28;19949;-49
2021/09/10 23:21:31;;;;;;;;;;;23.40;48.30;;;;;;8366480;28;19917;-49